createdAt,value
2022-10-25T00:00:16.450Z,1.87
2022-10-25T00:02:42.891Z,1.50
2022-10-25T00:05:14.303Z,2.33
2022-10-25T00:07:40.573Z,2.20
2022-10-25T00:10:07.913Z,2.60
2022-10-25T00:12:34.203Z,1.87
2022-10-25T00:15:01.699Z,1.70
2022-10-25T00:17:28.008Z,1.60
2022-10-25T00:19:54.342Z,2.00
2022-10-25T00:22:20.647Z,1.90
2022-10-25T00:24:46.957Z,2.70
2022-10-25T00:27:13.475Z,1.53
2022-10-25T00:29:39.916Z,1.97
2022-10-25T00:32:06.251Z,2.30
2022-10-25T00:34:32.506Z,1.80
2022-10-25T00:36:58.805Z,1.80
2022-10-25T00:39:25.208Z,1.87
2022-10-25T00:41:51.500Z,1.93
2022-10-25T00:44:36.429Z,2.00
2022-10-25T00:47:04.044Z,1.70
2022-10-25T00:49:31.719Z,2.17
2022-10-25T00:52:02.627Z,2.03
2022-10-25T00:54:30.310Z,1.70
2022-10-25T00:57:00.923Z,1.73
2022-10-25T00:59:27.379Z,2.53
2022-10-25T01:01:55.389Z,1.93
2022-10-25T01:04:26.272Z,2.17
2022-10-25T01:06:53.497Z,2.17
2022-10-25T01:09:23.939Z,2.10
2022-10-25T01:11:50.527Z,1.67
2022-10-25T01:14:17.062Z,1.97
2022-10-25T01:17:20.792Z,2.00
2022-10-25T01:20:02.116Z,1.70
2022-10-25T01:22:47.884Z,2.03
2022-10-25T01:25:49.045Z,2.40
2022-10-25T01:28:31.014Z,2.10
2022-10-25T01:31:11.727Z,2.60
2022-10-25T01:33:48.637Z,2.77
2022-10-25T01:36:14.881Z,1.70
2022-10-25T01:38:48.894Z,1.90
2022-10-25T01:41:47.125Z,2.63
2022-10-25T01:44:19.208Z,2.33
2022-10-25T01:47:02.613Z,2.23
2022-10-25T01:49:39.345Z,2.37
2022-10-25T01:52:05.645Z,2.67
2022-10-25T01:54:32.034Z,2.20
2022-10-25T01:57:04.984Z,2.20
2022-10-25T01:59:48.320Z,2.97
2022-10-25T02:02:23.795Z,1.80
2022-10-25T02:05:08.732Z,2.20
2022-10-25T02:07:41.517Z,2.30
2022-10-25T02:10:09.599Z,2.13
2022-10-25T02:12:51.592Z,1.87
2022-10-25T02:15:40.431Z,1.87
2022-10-25T02:18:15.851Z,1.77
2022-10-25T02:20:46.781Z,2.27
2022-10-25T02:23:14.704Z,2.63
2022-10-25T02:25:42.294Z,2.10
2022-10-25T02:28:11.506Z,2.13
2022-10-25T02:30:39.956Z,2.33
2022-10-25T02:33:06.551Z,2.63
2022-10-25T02:35:33.064Z,2.40
2022-10-25T02:37:59.732Z,2.30
2022-10-25T02:40:26.029Z,2.33
2022-10-25T02:42:52.459Z,2.30
2022-10-25T02:45:18.773Z,2.63
2022-10-25T02:47:45.423Z,2.30
2022-10-25T02:50:11.958Z,2.43
2022-10-25T02:52:38.277Z,2.37
2022-10-25T02:55:05.172Z,2.30
2022-10-25T02:57:36.240Z,2.60
2022-10-25T03:00:06.238Z,2.23
2022-10-25T03:02:32.556Z,2.37
2022-10-25T03:04:58.959Z,2.43
2022-10-25T03:07:25.261Z,2.00
2022-10-25T03:09:51.560Z,2.20
2022-10-25T03:12:17.870Z,2.50
2022-10-25T03:14:44.183Z,2.13
2022-10-25T03:17:10.482Z,2.10
2022-10-25T03:19:36.745Z,1.67
2022-10-25T03:22:03.205Z,1.83
2022-10-25T03:24:29.523Z,2.27
2022-10-25T03:26:55.830Z,2.37
2022-10-25T03:29:22.084Z,2.13
2022-10-25T03:31:48.433Z,2.80
2022-10-25T03:34:14.744Z,2.50
2022-10-25T03:36:41.035Z,3.17
2022-10-25T03:39:07.270Z,2.87
2022-10-25T03:41:33.636Z,3.10
2022-10-25T03:43:59.953Z,2.80
2022-10-25T03:46:26.368Z,2.87
2022-10-25T03:48:52.671Z,3.10
2022-10-25T03:51:18.983Z,2.40
2022-10-25T03:53:45.287Z,2.70
2022-10-25T03:56:11.609Z,2.83
2022-10-25T03:58:37.868Z,2.53
2022-10-25T04:01:09.533Z,2.33
2022-10-25T04:03:36.764Z,2.80
2022-10-25T04:06:02.997Z,2.47
2022-10-25T04:08:29.240Z,2.67
2022-10-25T04:10:55.540Z,2.80
2022-10-25T04:13:21.875Z,2.63
2022-10-25T04:15:48.180Z,2.40
2022-10-25T04:18:14.461Z,3.57
2022-10-25T04:20:40.703Z,3.10
2022-10-25T04:23:07.043Z,2.90
2022-10-25T04:25:33.315Z,2.63
2022-10-25T04:28:00.294Z,3.03
2022-10-25T04:30:26.722Z,2.90
2022-10-25T04:32:52.976Z,3.33
2022-10-25T04:35:19.206Z,3.10
2022-10-25T04:37:45.509Z,3.33
2022-10-25T04:40:11.870Z,2.70
2022-10-25T04:42:38.112Z,3.13
2022-10-25T04:45:04.779Z,3.43
2022-10-25T04:47:32.431Z,3.27
2022-10-25T04:49:58.723Z,3.23
2022-10-25T04:52:25.108Z,3.20
2022-10-25T04:54:51.426Z,2.43
2022-10-25T04:57:17.659Z,3.40
2022-10-25T04:59:43.982Z,3.47
2022-10-25T05:02:11.010Z,3.83
2022-10-25T05:04:37.320Z,3.43
2022-10-25T05:07:03.714Z,2.80
2022-10-25T05:09:30.029Z,2.63
2022-10-25T05:11:56.270Z,2.53
2022-10-25T05:14:22.525Z,2.67
2022-10-25T05:16:48.752Z,3.27
2022-10-25T05:19:15.090Z,3.10
2022-10-25T05:21:41.423Z,3.30
2022-10-25T05:24:07.805Z,4.07
2022-10-25T05:26:34.194Z,3.80
2022-10-25T05:29:00.624Z,3.53
2022-10-25T05:31:28.114Z,3.43
2022-10-25T05:34:00.229Z,3.03
2022-10-25T05:36:30.220Z,3.87
2022-10-25T05:38:56.543Z,2.53
2022-10-25T05:41:22.836Z,3.17
2022-10-25T05:43:49.196Z,2.83
2022-10-25T05:46:18.530Z,3.70
2022-10-25T05:48:48.658Z,3.60
2022-10-25T05:51:32.196Z,3.70
2022-10-25T05:54:03.871Z,3.10
2022-10-25T05:56:32.201Z,2.93
2022-10-25T05:59:01.306Z,3.10
2022-10-25T06:01:27.668Z,3.00
2022-10-25T06:03:55.564Z,3.07
2022-10-25T06:06:22.835Z,3.40
2022-10-25T06:08:49.333Z,3.40
2022-10-25T06:11:19.441Z,3.50
2022-10-25T06:13:46.890Z,3.80
2022-10-25T06:16:15.493Z,3.40
2022-10-25T06:18:42.233Z,3.20
2022-10-25T06:21:16.660Z,2.93
2022-10-25T06:23:43.312Z,2.93
2022-10-25T06:26:16.010Z,3.03
2022-10-25T06:28:43.469Z,3.80
2022-10-25T06:31:11.970Z,3.13
2022-10-25T06:33:38.879Z,3.70
2022-10-25T06:36:07.287Z,3.53
2022-10-25T06:38:34.062Z,3.03
2022-10-25T06:41:01.184Z,3.30
2022-10-25T06:43:27.771Z,3.77
2022-10-25T06:45:54.300Z,3.63
2022-10-25T06:48:20.928Z,3.90
2022-10-25T06:50:49.907Z,2.90
2022-10-25T06:53:18.470Z,4.00
2022-10-25T06:55:46.995Z,3.57
2022-10-25T06:58:13.301Z,3.33
2022-10-25T07:00:39.597Z,3.73
2022-10-25T07:03:05.907Z,3.20
2022-10-25T07:05:32.213Z,3.53
2022-10-25T07:07:58.451Z,3.50
2022-10-25T07:10:24.805Z,4.00
2022-10-25T07:12:51.180Z,3.80
2022-10-25T07:15:17.545Z,3.90
2022-10-25T07:17:43.993Z,4.47
2022-10-25T07:20:10.807Z,3.27
2022-10-25T07:22:37.132Z,3.67
2022-10-25T07:25:03.949Z,4.03
2022-10-25T07:27:32.017Z,3.53
2022-10-25T07:29:58.442Z,3.87
2022-10-25T07:32:24.953Z,3.77
2022-10-25T07:34:51.274Z,3.90
2022-10-25T07:37:17.596Z,5.03
2022-10-25T07:39:43.965Z,5.63
2022-10-25T07:42:10.228Z,4.67
2022-10-25T07:44:36.576Z,5.20
2022-10-25T07:47:02.938Z,4.60
2022-10-25T07:49:29.272Z,4.40
2022-10-25T07:51:55.581Z,4.67
2022-10-25T07:54:21.824Z,4.03
2022-10-25T07:56:48.134Z,4.20
2022-10-25T07:59:14.517Z,4.90
2022-10-25T08:01:40.912Z,5.30
2022-10-25T08:04:07.323Z,5.37
2022-10-25T08:06:35.952Z,4.77
2022-10-25T08:09:09.784Z,5.37
2022-10-25T08:11:41.441Z,5.13
2022-10-25T08:14:07.767Z,5.20
2022-10-25T08:16:34.065Z,4.93
2022-10-25T08:19:00.392Z,5.50
2022-10-25T08:21:26.769Z,5.00
2022-10-25T08:23:53.123Z,5.90
2022-10-25T08:26:24.907Z,4.97
2022-10-25T08:28:51.229Z,4.63
2022-10-25T08:31:17.746Z,5.27
2022-10-25T08:33:45.524Z,5.27
2022-10-25T08:36:11.857Z,4.60
2022-10-25T08:38:38.176Z,4.83
2022-10-25T08:41:16.007Z,5.33
2022-10-25T08:46:38.164Z,4.77
2022-10-25T08:49:19.719Z,5.10
2022-10-25T08:51:47.307Z,4.57
2022-10-25T08:54:23.166Z,5.47
2022-10-25T08:57:15.181Z,5.23
2022-10-25T08:59:45.216Z,5.30
2022-10-25T09:02:18.116Z,4.53
2022-10-25T09:04:44.636Z,4.30
2022-10-25T09:07:31.558Z,5.27
2022-10-25T09:10:09.372Z,5.07
2022-10-25T09:12:39.328Z,6.00
2022-10-25T09:15:05.644Z,4.63
2022-10-25T09:17:43.780Z,4.63
2022-10-25T09:20:33.116Z,4.43
2022-10-25T09:25:53.916Z,4.93
2022-10-25T09:28:32.288Z,4.53
2022-10-25T09:30:59.680Z,4.73
2022-10-25T09:33:30.271Z,3.97
2022-10-25T09:35:58.559Z,4.17
2022-10-25T09:38:34.645Z,4.10
2022-10-25T09:41:16.180Z,4.90
2022-10-25T09:44:00.378Z,4.33
2022-10-25T09:46:42.173Z,4.37
2022-10-25T09:49:47.057Z,4.57
2022-10-25T09:52:34.686Z,4.73
2022-10-25T09:55:20.400Z,5.27
2022-10-25T09:57:47.096Z,4.30
2022-10-25T10:00:14.889Z,3.87
2022-10-25T10:02:41.505Z,3.60
2022-10-25T10:05:19.537Z,3.90
2022-10-25T10:07:48.369Z,4.00
2022-10-25T10:10:26.673Z,3.80
2022-10-25T10:13:11.817Z,4.27
2022-10-25T10:15:53.469Z,3.80
2022-10-25T10:18:34.481Z,3.63
2022-10-25T10:21:02.051Z,2.73
2022-10-25T10:23:29.617Z,3.27
2022-10-25T10:25:56.772Z,4.70
2022-10-25T10:28:23.234Z,4.30
2022-10-25T10:30:53.802Z,4.50
2022-10-25T10:33:20.602Z,3.97
2022-10-25T10:35:46.901Z,4.23
2022-10-25T10:38:29.155Z,3.50
2022-10-25T10:41:13.393Z,3.37
2022-10-25T10:43:40.109Z,3.40
2022-10-25T10:46:16.552Z,3.20
2022-10-25T10:48:44.156Z,2.97
2022-10-25T10:51:31.735Z,3.20
2022-10-25T10:54:12.909Z,3.50
2022-10-25T10:56:39.531Z,3.77
2022-10-25T10:59:05.836Z,3.67
2022-10-25T11:01:33.369Z,3.10
2022-10-25T11:04:01.255Z,4.27
2022-10-25T11:06:35.049Z,3.37
2022-10-25T11:09:19.208Z,3.13
2022-10-25T11:12:03.366Z,2.93
2022-10-25T11:14:29.849Z,3.43
2022-10-25T11:17:01.414Z,2.87
2022-10-25T11:19:42.641Z,3.13
2022-10-25T11:22:15.535Z,2.53
2022-10-25T11:24:50.376Z,2.90
2022-10-25T11:27:16.590Z,2.73
2022-10-25T11:30:09.727Z,3.60
2022-10-25T11:32:51.565Z,2.77
2022-10-25T11:35:26.988Z,2.77
2022-10-25T11:38:03.146Z,2.93
2022-10-25T11:40:32.646Z,2.43
2022-10-25T11:43:33.937Z,2.20
2022-10-25T11:46:08.260Z,3.00
2022-10-25T11:49:22.704Z,2.60
2022-10-25T11:51:51.772Z,2.60
2022-10-25T11:54:18.014Z,2.27
2022-10-25T11:57:29.629Z,2.60
2022-10-25T12:00:12.973Z,3.03
2022-10-25T12:03:01.308Z,3.07
2022-10-25T12:05:35.884Z,2.73
2022-10-25T12:08:17.289Z,3.73
2022-10-25T12:10:47.851Z,3.87
2022-10-25T12:13:20.424Z,3.67
2022-10-25T12:15:52.004Z,2.70
2022-10-25T12:18:36.909Z,3.47
2022-10-25T12:21:04.166Z,3.37
2022-10-25T12:23:34.680Z,3.57
2022-10-25T12:26:10.323Z,2.80
2022-10-25T12:28:45.812Z,3.33
2022-10-25T12:31:27.243Z,3.27
2022-10-25T12:34:01.004Z,2.57
2022-10-25T12:36:37.885Z,2.70
2022-10-25T12:39:12.900Z,3.17
2022-10-25T12:41:40.158Z,3.07
2022-10-25T12:44:21.734Z,3.00
2022-10-25T12:47:27.163Z,3.50
2022-10-25T12:52:55.292Z,2.83
2022-10-25T12:55:29.245Z,3.00
2022-10-25T12:58:14.320Z,2.80
2022-10-25T13:01:04.337Z,2.83
2022-10-25T13:03:38.384Z,2.40
2022-10-25T13:06:20.561Z,2.50
2022-10-25T13:08:47.405Z,2.63
2022-10-25T13:11:13.863Z,2.67
2022-10-25T13:13:51.717Z,2.77
2022-10-25T13:16:30.710Z,2.73
2022-10-25T13:19:36.031Z,2.60
2022-10-25T13:22:34.110Z,3.43
2022-10-25T13:25:05.408Z,2.13
2022-10-25T13:27:32.958Z,1.83
2022-10-25T13:30:08.336Z,2.23
2022-10-25T13:32:37.365Z,1.67
2022-10-25T13:35:26.682Z,2.23
2022-10-25T13:37:54.432Z,1.90
2022-10-25T13:40:25.644Z,2.50
2022-10-25T13:43:00.803Z,2.13
2022-10-25T13:45:33.557Z,1.90
2022-10-25T13:48:09.609Z,1.90
2022-10-25T13:50:49.175Z,2.57
2022-10-25T13:53:41.927Z,1.80
2022-10-25T13:56:35.653Z,2.17
2022-10-25T13:59:02.219Z,2.07
2022-10-25T14:01:31.057Z,2.47
2022-10-25T14:04:03.475Z,3.77
2022-10-25T14:06:36.930Z,2.80
2022-10-25T14:09:08.706Z,2.50
2022-10-25T14:11:48.486Z,2.93
2022-10-25T14:14:53.110Z,3.10
2022-10-25T14:17:34.749Z,2.47
2022-10-25T14:20:30.243Z,2.30
2022-10-25T14:23:00.549Z,3.03
2022-10-25T14:25:39.852Z,3.17
2022-10-25T14:28:20.893Z,2.63
2022-10-25T14:30:50.164Z,2.87
2022-10-25T14:33:22.649Z,2.70
2022-10-25T14:35:50.160Z,2.80
2022-10-25T14:38:22.585Z,3.00
2022-10-25T14:40:57.808Z,3.07
2022-10-25T14:43:33.129Z,2.63
2022-10-25T14:46:02.650Z,3.00
2022-10-25T14:48:29.463Z,2.77
2022-10-25T14:50:57.343Z,2.00
2022-10-25T14:53:24.118Z,2.60
2022-10-25T14:55:56.173Z,2.50
2022-10-25T14:58:23.159Z,2.80
2022-10-25T15:00:54.353Z,2.43
2022-10-25T15:03:21.256Z,2.17
2022-10-25T15:05:47.768Z,2.40
2022-10-25T15:08:19.746Z,1.77
2022-10-25T15:10:49.972Z,2.00
2022-10-25T15:13:28.516Z,1.63
2022-10-25T15:15:56.028Z,2.27
2022-10-25T15:18:25.081Z,2.30
2022-10-25T15:21:11.869Z,1.70
2022-10-25T15:23:39.268Z,2.60
2022-10-25T15:26:24.001Z,2.23
2022-10-25T15:29:00.563Z,2.37
2022-10-25T15:31:28.236Z,1.70
2022-10-25T15:33:59.903Z,2.33
2022-10-25T15:36:27.931Z,2.40
2022-10-25T15:39:16.845Z,1.40
2022-10-25T15:41:42.893Z,1.87
2022-10-25T15:44:09.201Z,1.70
2022-10-25T15:46:36.257Z,1.73
2022-10-25T15:49:08.119Z,1.87
2022-10-25T15:51:35.940Z,1.53
2022-10-25T15:54:02.206Z,2.00
2022-10-25T15:56:28.989Z,1.57
2022-10-25T15:58:55.298Z,1.77
2022-10-25T16:01:21.793Z,1.97
2022-10-25T16:03:48.313Z,2.00
2022-10-25T16:06:14.733Z,1.77
2022-10-25T16:08:41.986Z,2.23
2022-10-25T16:11:15.341Z,1.83
2022-10-25T16:13:42.171Z,1.70
2022-10-25T16:16:39.516Z,1.70
2022-10-25T16:19:10.885Z,2.00
2022-10-25T16:21:37.216Z,1.50
2022-10-25T16:24:03.600Z,2.13
2022-10-25T16:26:35.872Z,1.77
2022-10-25T16:29:02.459Z,1.97
2022-10-25T16:31:28.698Z,2.03
2022-10-25T16:33:55.037Z,2.60
2022-10-25T16:36:21.282Z,2.50
2022-10-25T16:38:48.081Z,2.73
2022-10-25T16:41:32.254Z,2.73
2022-10-25T16:43:58.647Z,2.70
2022-10-25T16:46:25.486Z,3.07
2022-10-25T16:48:51.984Z,3.10
2022-10-25T16:51:18.720Z,2.43
2022-10-25T16:53:48.523Z,2.40
2022-10-25T16:56:14.960Z,3.50
2022-10-25T16:58:41.928Z,3.47
2022-10-25T17:01:39.028Z,3.60
2022-10-25T17:04:09.457Z,3.77
2022-10-25T17:06:41.164Z,3.57
2022-10-25T17:09:08.614Z,3.93
2022-10-25T17:11:35.971Z,3.93
2022-10-25T17:14:02.284Z,3.70
2022-10-25T17:16:28.528Z,3.60
2022-10-25T17:18:54.903Z,3.07
2022-10-25T17:21:21.223Z,3.80
2022-10-25T17:23:47.459Z,3.80
2022-10-25T17:26:15.152Z,3.83
2022-10-25T17:28:44.136Z,4.17
2022-10-25T17:31:13.093Z,3.67
2022-10-25T17:33:40.508Z,3.57
2022-10-25T17:36:09.146Z,3.63
2022-10-25T17:38:35.675Z,3.17
2022-10-25T17:41:02.069Z,3.77
2022-10-25T17:43:28.505Z,3.73
2022-10-25T17:45:59.851Z,3.60
2022-10-25T17:48:26.105Z,3.27
2022-10-25T17:50:52.440Z,2.90
2022-10-25T17:53:18.785Z,2.80
2022-10-25T17:55:45.170Z,2.47
2022-10-25T17:58:12.312Z,2.90
2022-10-25T18:00:38.622Z,2.60
2022-10-25T18:03:05.083Z,3.00
2022-10-25T18:05:31.477Z,3.43
2022-10-25T18:07:57.808Z,2.93
2022-10-25T18:10:24.152Z,2.90
2022-10-25T18:12:50.773Z,2.87
2022-10-25T18:15:17.609Z,2.83
2022-10-25T18:17:46.126Z,2.67
2022-10-25T18:20:13.243Z,2.70
2022-10-25T18:22:39.641Z,2.57
2022-10-25T18:25:06.505Z,3.20
2022-10-25T18:27:32.815Z,2.70
2022-10-25T18:29:59.057Z,3.67
2022-10-25T18:32:32.165Z,4.00
2022-10-25T18:35:01.558Z,3.97
2022-10-25T18:37:27.965Z,3.60
2022-10-25T18:39:54.480Z,4.80
2022-10-25T18:42:20.894Z,4.53
2022-10-25T18:44:47.288Z,3.60
2022-10-25T18:47:13.701Z,4.13
2022-10-25T18:49:40.040Z,4.00
2022-10-25T18:52:06.430Z,4.00
2022-10-25T18:54:32.727Z,4.10
2022-10-25T18:56:59.016Z,3.70
2022-10-25T18:59:25.336Z,4.03
2022-10-25T19:01:51.837Z,4.10
2022-10-25T19:04:18.221Z,4.47
2022-10-25T19:06:44.628Z,5.57
2022-10-25T19:09:10.983Z,5.17
2022-10-25T19:11:37.238Z,4.37
2022-10-25T19:14:05.024Z,4.43
2022-10-25T19:16:31.705Z,4.70
2022-10-25T19:19:01.348Z,4.57
2022-10-25T19:21:27.649Z,4.17
2022-10-25T19:23:54.128Z,4.80
2022-10-25T19:26:21.448Z,4.30
2022-10-25T19:28:54.495Z,4.70
2022-10-25T19:31:20.960Z,5.87
2022-10-25T19:33:49.168Z,5.53
2022-10-25T19:36:16.649Z,4.90
2022-10-25T19:38:44.861Z,4.23
2022-10-25T19:41:14.889Z,4.93
2022-10-25T19:43:41.198Z,5.73
2022-10-25T19:46:07.751Z,5.87
2022-10-25T19:48:34.768Z,6.33
2022-10-25T19:51:05.849Z,5.27
2022-10-25T19:53:32.337Z,6.23
2022-10-25T19:56:04.216Z,7.30
2022-10-25T19:58:30.824Z,6.50
2022-10-25T20:01:07.609Z,6.53
2022-10-25T20:03:35.499Z,7.10
2022-10-25T20:06:17.483Z,6.87
2022-10-25T20:08:47.250Z,7.17
2022-10-25T20:11:13.939Z,8.27
2022-10-25T20:13:40.347Z,6.93
2022-10-25T20:16:07.148Z,6.47
2022-10-25T20:18:35.940Z,7.67
2022-10-25T20:21:08.269Z,7.77
2022-10-25T20:23:35.394Z,8.03
2022-10-25T20:26:16.193Z,7.93
2022-10-25T20:28:42.947Z,7.37
2022-10-25T20:31:10.141Z,7.90
2022-10-25T20:33:36.733Z,8.20
2022-10-25T20:36:07.314Z,9.60
2022-10-25T20:38:34.760Z,8.10
2022-10-25T20:41:05.765Z,8.20
2022-10-25T20:43:32.587Z,9.33
2022-10-25T20:45:59.146Z,8.57
2022-10-25T20:48:25.541Z,9.70
2022-10-25T20:50:53.128Z,7.63
2022-10-25T20:53:20.777Z,8.93
2022-10-25T20:55:48.330Z,8.13
2022-10-25T20:58:16.328Z,8.73
2022-10-25T21:00:42.912Z,7.90
2022-10-25T21:03:09.301Z,8.37
2022-10-25T21:05:36.822Z,9.00
2022-10-25T21:08:06.251Z,9.43
2022-10-25T21:10:32.552Z,8.20
2022-10-25T21:12:58.843Z,8.53
2022-10-25T21:15:25.129Z,7.90
2022-10-25T21:17:51.579Z,9.70
2022-10-25T21:20:18.014Z,7.60
2022-10-25T21:22:46.229Z,8.23
2022-10-25T21:25:12.463Z,8.27
2022-10-25T21:27:38.789Z,6.83
2022-10-25T21:30:05.948Z,8.60
2022-10-25T21:32:33.152Z,7.83
2022-10-25T21:34:59.439Z,7.53
2022-10-25T21:37:26.685Z,7.73
2022-10-25T21:39:52.956Z,7.90
2022-10-25T21:42:19.297Z,7.03
2022-10-25T21:44:45.604Z,7.53
2022-10-25T21:47:12.240Z,7.00
2022-10-25T21:49:38.728Z,7.90
2022-10-25T21:52:05.160Z,7.20
2022-10-25T21:54:31.470Z,7.60
2022-10-25T21:56:57.762Z,7.90
2022-10-25T21:59:24.117Z,6.43
2022-10-25T22:01:50.553Z,7.90
2022-10-25T22:04:16.944Z,7.67
2022-10-25T22:06:43.257Z,6.67
2022-10-25T22:09:09.605Z,6.57
2022-10-25T22:11:38.599Z,7.43
2022-10-25T22:14:08.055Z,7.20
2022-10-25T22:16:34.624Z,7.20
2022-10-25T22:19:02.906Z,6.97
2022-10-25T22:21:34.180Z,6.77
2022-10-25T22:24:00.620Z,6.77
2022-10-25T22:26:27.253Z,6.63
2022-10-25T22:28:55.670Z,7.30
2022-10-25T22:31:22.756Z,6.60
2022-10-25T22:33:54.660Z,6.00
2022-10-25T22:36:22.712Z,6.63
2022-10-25T22:38:49.298Z,6.13
2022-10-25T22:41:16.619Z,6.50
2022-10-25T22:43:43.295Z,6.00
2022-10-25T22:46:27.017Z,6.43
2022-10-25T22:48:55.410Z,6.17
2022-10-25T22:51:23.025Z,6.20
2022-10-25T22:53:49.421Z,6.90
2022-10-25T22:56:24.718Z,6.10
2022-10-25T22:58:52.365Z,6.40
2022-10-25T23:01:24.818Z,6.13
2022-10-25T23:03:54.522Z,6.27
2022-10-25T23:06:26.554Z,6.57
2022-10-25T23:08:54.296Z,6.47
2022-10-25T23:11:22.759Z,7.73
2022-10-25T23:13:49.449Z,6.40
2022-10-25T23:16:16.709Z,6.37
2022-10-25T23:18:43.505Z,6.40
2022-10-25T23:21:16.117Z,6.53
2022-10-25T23:23:42.952Z,5.43
2022-10-25T23:26:12.367Z,5.47
2022-10-25T23:28:38.661Z,6.13
2022-10-25T23:31:10.819Z,5.70
2022-10-25T23:33:37.935Z,6.10
2022-10-25T23:36:10.552Z,6.03
2022-10-25T23:38:37.467Z,5.50
2022-10-25T23:41:04.840Z,6.80
2022-10-25T23:43:32.028Z,6.53
2022-10-25T23:45:58.352Z,6.23
2022-10-25T23:48:24.989Z,5.93
2022-10-25T23:50:56.356Z,5.63
2022-10-25T23:53:23.094Z,5.77
2022-10-25T23:55:49.404Z,5.67
2022-10-25T23:58:15.739Z,6.23
